KARV

Lakeland / Noble F Lee Memorial Field Airport

Minocqua-Woodruff, Wisconsin, USA
METAR KARV 162215Z AUTO 28008KT 10SM CLR 05/M08 A2994 RMK AO2 T00531085
Observed Flight Rules
Dec-16 @ 22:15 UTC (21 minutes ago) Visual Flight Rules
Wind Visibility Clouds
280° at 8 knots 10 miles
  • Clear skies
Temperatures Readings
Current 5°C / 41°F
Dewpoint -9°C / 16°F
Humidity 36%
Altimeter 29.94" Hg
Pressure 1014 hPa
Elevation 496
METAR KARV 162215Z AUTO 28008KT 10SM CLR 05/M08 A2994 RMK AO2 T00531085
Observed Flight Rules
Dec-16 @ 22:15 UTC
(21 minutes ago)
VFR
Wind Visibility
280° at 8 knots 10 miles
Clouds
  • Clear skies
Temperature Dewpoint
5°C / 41°F -9°C / 16°F
Humidity Altimeter Pressure
36% 29.94" Hg 1014 hPa